createdAt,value
2019-06-20T00:01:27.118Z,100704.00
2019-06-20T00:03:59.520Z,100708.37
2019-06-20T00:06:32.142Z,100717.05
2019-06-20T00:09:05.033Z,100721.23
2019-06-20T00:11:37.396Z,100722.84
2019-06-20T00:14:09.696Z,100717.73
2019-06-20T00:16:41.988Z,100713.84
2019-06-20T00:19:14.262Z,100714.45
2019-06-20T00:21:47.688Z,100714.48
2019-06-20T00:24:19.969Z,100720.55
2019-06-20T00:26:52.324Z,100716.17
2019-06-20T00:29:24.666Z,100715.59
2019-06-20T00:31:57.031Z,100719.84
2019-06-20T00:34:29.310Z,100715.23
2019-06-20T00:37:01.966Z,100716.51
2019-06-20T00:39:34.324Z,100719.20
2019-06-20T00:42:07.047Z,100711.27
2019-06-20T00:44:39.489Z,100709.36
2019-06-20T00:47:11.791Z,100709.78
2019-06-20T00:49:44.351Z,100708.73
2019-06-20T00:52:16.598Z,100699.47
2019-06-20T00:54:49.232Z,100696.83
2019-06-20T00:57:21.829Z,100694.39
2019-06-20T00:59:54.176Z,100688.27
2019-06-20T01:02:26.443Z,100689.07
2019-06-20T01:04:59.195Z,100688.35
2019-06-20T01:07:31.655Z,100687.80
2019-06-20T01:10:03.983Z,100695.45
2019-06-20T01:12:36.398Z,100681.44
2019-06-20T01:15:10.610Z,100693.42
2019-06-20T01:17:43.363Z,100694.67
2019-06-20T01:20:16.456Z,100696.41
2019-06-20T01:22:48.811Z,100693.53
2019-06-20T01:25:40.216Z,100692.47
2019-06-20T01:28:13.007Z,100685.71
2019-06-20T01:30:45.863Z,100681.52
2019-06-20T01:33:18.171Z,100683.52
2019-06-20T01:35:50.472Z,100688.01
2019-06-20T01:38:22.833Z,100684.23
2019-06-20T01:40:55.409Z,100679.30
2019-06-20T01:43:29.007Z,100684.23
2019-06-20T01:46:01.285Z,100695.88
2019-06-20T01:48:33.649Z,100697.56
2019-06-20T01:51:06.234Z,100692.62
2019-06-20T01:53:38.579Z,100689.13
2019-06-20T01:56:10.874Z,100693.47
2019-06-20T01:58:43.234Z,100706.19
2019-06-20T02:01:15.807Z,100702.66
2019-06-20T02:03:48.450Z,100701.75
2019-06-20T02:06:21.088Z,100703.23
2019-06-20T02:08:54.042Z,100702.48
2019-06-20T02:11:26.964Z,100703.59
2019-06-20T02:14:07.105Z,100705.00
2019-06-20T02:16:33.362Z,100716.73
2019-06-20T02:19:05.654Z,100708.72
2019-06-20T02:21:38.503Z,100705.72
2019-06-20T02:24:11.533Z,100712.12
2019-06-20T02:26:45.002Z,100716.56
2019-06-20T02:29:17.531Z,100714.45
2019-06-20T02:31:50.158Z,100710.94
2019-06-20T02:34:22.416Z,100714.55
2019-06-20T02:36:54.765Z,100712.27
2019-06-20T02:39:27.423Z,100715.48
2019-06-20T02:42:00.379Z,100703.12
2019-06-20T02:44:32.656Z,100704.70
2019-06-20T02:47:05.055Z,100709.97
2019-06-20T02:49:37.319Z,100705.58
2019-06-20T02:52:10.040Z,100700.68
2019-06-20T02:54:42.725Z,100704.05
2019-06-20T02:57:15.074Z,100703.88
2019-06-20T02:59:47.370Z,100702.03
2019-06-20T03:02:19.709Z,100709.79
2019-06-20T03:04:52.008Z,100713.12
2019-06-20T03:07:24.713Z,100718.00
2019-06-20T03:09:56.969Z,100721.52
2019-06-20T03:12:29.696Z,100720.12
2019-06-20T03:15:02.778Z,100720.19
2019-06-20T03:17:35.134Z,100720.72
2019-06-20T03:20:10.567Z,100726.96
2019-06-20T03:22:43.100Z,100715.56
2019-06-20T03:25:18.614Z,100724.66
2019-06-20T03:27:50.932Z,100725.47
2019-06-20T03:30:23.869Z,100725.45
2019-06-20T03:32:57.190Z,100728.78
2019-06-20T03:35:29.515Z,100731.03
2019-06-20T03:38:01.868Z,100730.39
2019-06-20T03:40:34.248Z,100736.62
2019-06-20T03:43:06.611Z,100740.17
2019-06-20T03:45:42.342Z,100730.75
2019-06-20T03:48:15.409Z,100738.52
2019-06-20T03:50:47.778Z,100740.60
2019-06-20T03:53:20.134Z,100737.66
2019-06-20T03:55:52.413Z,100741.97
2019-06-20T03:58:24.748Z,100742.57
2019-06-20T04:00:57.026Z,100745.35
2019-06-20T04:03:29.495Z,100736.85
2019-06-20T04:06:01.781Z,100739.62
2019-06-20T04:08:34.144Z,100739.22
2019-06-20T04:11:06.408Z,100741.13
2019-06-20T04:13:39.357Z,100737.08
2019-06-20T04:16:11.650Z,100738.89
2019-06-20T04:18:44.304Z,100742.67
2019-06-20T04:21:16.595Z,100746.91
2019-06-20T04:23:49.361Z,100749.23
2019-06-20T04:26:21.657Z,100754.72
2019-06-20T04:28:54.939Z,100757.53
2019-06-20T04:31:27.254Z,100754.83
2019-06-20T04:33:59.897Z,100757.09
2019-06-20T04:36:32.192Z,100760.66
2019-06-20T04:39:18.421Z,100762.29
2019-06-20T04:41:39.682Z,100758.20
2019-06-20T04:44:12.022Z,100762.91
2019-06-20T04:46:49.697Z,100761.16
2019-06-20T04:49:22.139Z,100760.31
2019-06-20T04:51:54.714Z,100763.55
2019-06-20T04:54:27.373Z,100758.20
2019-06-20T04:57:00.203Z,100762.71
2019-06-20T04:59:32.790Z,100768.34
2019-06-20T05:02:05.534Z,100770.52
2019-06-20T05:04:38.183Z,100776.59
2019-06-20T05:07:18.917Z,100782.16
2019-06-20T05:09:53.006Z,100777.52
2019-06-20T05:12:25.302Z,100775.50
2019-06-20T05:14:57.668Z,100775.61
2019-06-20T05:17:30.305Z,100780.61
2019-06-20T05:20:04.519Z,100781.14
2019-06-20T05:22:37.875Z,100777.79
2019-06-20T05:25:16.166Z,100785.25
2019-06-20T05:27:48.906Z,100786.91
2019-06-20T05:30:24.128Z,100791.24
2019-06-20T05:32:57.344Z,100792.22
2019-06-20T05:35:33.395Z,100794.25
2019-06-20T05:38:05.758Z,100801.39
2019-06-20T05:40:38.107Z,100801.79
2019-06-20T05:43:11.942Z,100805.08
2019-06-20T05:45:48.360Z,100816.50
2019-06-20T05:48:18.711Z,100819.10
2019-06-20T05:50:52.148Z,100822.56
2019-06-20T05:53:24.417Z,100826.30
2019-06-20T05:55:57.100Z,100823.48
2019-06-20T05:58:29.916Z,100823.35
2019-06-20T06:01:02.403Z,100829.09
2019-06-20T06:03:34.707Z,100832.77
2019-06-20T06:06:07.122Z,100838.91
2019-06-20T06:08:39.810Z,100850.30
2019-06-20T06:11:12.231Z,100843.27
2019-06-20T06:13:44.518Z,100848.39
2019-06-20T06:16:25.739Z,100845.36
2019-06-20T06:18:50.915Z,100848.44
2019-06-20T06:21:23.254Z,100844.44
2019-06-20T06:23:55.598Z,100861.36
2019-06-20T06:26:27.964Z,100856.04
2019-06-20T06:29:00.555Z,100850.11
2019-06-20T06:31:33.478Z,100855.99
2019-06-20T06:34:05.733Z,100854.47
2019-06-20T06:36:38.359Z,100865.09
2019-06-20T06:39:11.466Z,100872.05
2019-06-20T06:41:43.873Z,100869.14
2019-06-20T06:44:16.168Z,100876.68
2019-06-20T06:46:54.376Z,100876.30
2019-06-20T06:49:22.968Z,100878.59
2019-06-20T06:51:55.394Z,100869.91
2019-06-20T06:54:27.686Z,100876.52
2019-06-20T06:57:00.411Z,100878.52
2019-06-20T06:59:33.237Z,100875.09
2019-06-20T07:02:05.709Z,100877.72
2019-06-20T07:04:38.277Z,100874.55
2019-06-20T07:07:11.083Z,100878.80
2019-06-20T07:09:43.364Z,100870.59
2019-06-20T07:12:15.814Z,100875.33
2019-06-20T07:14:48.343Z,100878.77
2019-06-20T07:17:20.927Z,100879.06
2019-06-20T07:19:53.605Z,100882.77
2019-06-20T07:22:25.972Z,100889.23
2019-06-20T07:24:58.349Z,100892.02
2019-06-20T07:27:30.642Z,100893.27
2019-06-20T07:30:03.685Z,100895.05
2019-06-20T07:32:36.596Z,100890.57
2019-06-20T07:35:12.835Z,100888.11
2019-06-20T07:37:45.676Z,100889.44
2019-06-20T07:40:18.348Z,100887.85
2019-06-20T07:42:51.543Z,100895.41
2019-06-20T07:45:29.277Z,100895.34
2019-06-20T07:48:02.723Z,100892.89
2019-06-20T07:50:35.119Z,100891.30
2019-06-20T07:53:07.426Z,100898.23
2019-06-20T07:55:40.494Z,100899.08
2019-06-20T07:58:12.782Z,100900.80
2019-06-20T08:00:45.167Z,100901.47
2019-06-20T08:03:17.477Z,100909.88
2019-06-20T08:05:49.837Z,100909.36
2019-06-20T08:08:22.142Z,100903.28
2019-06-20T08:10:55.621Z,100916.86
2019-06-20T08:13:27.969Z,100918.79
2019-06-20T08:16:03.633Z,100917.34
2019-06-20T08:18:34.998Z,100919.63
2019-06-20T08:21:07.737Z,100925.34
2019-06-20T08:23:40.693Z,100928.86
2019-06-20T08:26:13.019Z,100926.69
2019-06-20T08:28:45.571Z,100931.76
2019-06-20T08:31:18.030Z,100929.48
2019-06-20T08:33:50.350Z,100936.23
2019-06-20T08:36:22.689Z,100937.64
2019-06-20T08:38:56.924Z,100943.23
2019-06-20T08:41:29.411Z,100942.08
2019-06-20T08:44:01.851Z,100950.70
2019-06-20T08:46:35.495Z,100944.61
2019-06-20T08:49:08.177Z,100953.66
2019-06-20T08:51:40.647Z,100958.53
2019-06-20T08:54:13.415Z,100959.42
2019-06-20T08:56:47.309Z,100957.55
2019-06-20T08:59:24.218Z,100960.23
2019-06-20T09:01:56.538Z,100965.62
2019-06-20T09:04:28.731Z,100962.84
2019-06-20T09:09:35.327Z,100965.98
2019-06-20T09:12:08.107Z,100968.41
2019-06-20T09:14:40.812Z,100966.05
2019-06-20T09:17:13.399Z,100968.58
2019-06-20T09:19:45.759Z,100968.89
2019-06-20T09:22:18.066Z,100963.71
2019-06-20T09:24:52.023Z,100972.87
2019-06-20T09:27:25.424Z,100986.61
2019-06-20T09:29:58.503Z,100994.44
2019-06-20T09:32:31.004Z,100995.73
2019-06-20T09:35:03.844Z,100995.23
2019-06-20T09:37:36.201Z,101001.20
2019-06-20T09:40:10.192Z,100997.64
2019-06-20T09:42:42.556Z,101007.98
2019-06-20T09:45:19.663Z,101016.41
2019-06-20T09:47:53.536Z,101015.20
2019-06-20T09:50:27.270Z,101020.48
2019-06-20T09:53:00.700Z,101022.16
2019-06-20T09:55:33.054Z,101026.22
2019-06-20T09:58:08.514Z,101023.78
2019-06-20T10:00:41.481Z,101026.95
2019-06-20T10:03:13.890Z,101029.14
2019-06-20T10:05:47.629Z,101031.14
2019-06-20T10:08:20.524Z,101033.72
2019-06-20T10:10:54.136Z,101032.10
2019-06-20T10:13:26.743Z,101036.87
2019-06-20T10:15:59.339Z,101038.18
2019-06-20T10:18:31.666Z,101039.25
2019-06-20T10:21:04.040Z,101043.16
2019-06-20T10:23:36.641Z,101042.08
2019-06-20T10:26:09.027Z,101035.52
2019-06-20T10:28:41.331Z,101036.54
2019-06-20T10:31:13.725Z,101034.58
2019-06-20T10:33:46.863Z,101040.63
2019-06-20T10:36:19.449Z,101044.82
2019-06-20T10:38:52.650Z,101044.61
2019-06-20T10:41:25.683Z,101040.44
2019-06-20T10:43:58.027Z,101033.33
2019-06-20T10:46:31.295Z,101040.46
2019-06-20T10:49:04.074Z,101042.33
2019-06-20T10:51:47.673Z,101043.48
2019-06-20T10:54:20.351Z,101048.70
2019-06-20T10:56:52.676Z,101057.02
2019-06-20T10:59:25.415Z,101060.21
2019-06-20T11:01:57.791Z,101067.00
2019-06-20T11:04:30.967Z,101063.22
2019-06-20T11:07:03.959Z,101058.89
2019-06-20T11:09:36.552Z,101060.05
2019-06-20T11:12:08.977Z,101058.47
2019-06-20T11:14:42.141Z,101063.34
2019-06-20T11:17:15.080Z,101064.67
2019-06-20T11:19:48.086Z,101063.55
2019-06-20T11:22:20.511Z,101059.45
2019-06-20T11:24:54.413Z,101064.61
2019-06-20T11:27:27.173Z,101062.09
2019-06-20T11:29:59.913Z,101054.90
2019-06-20T11:32:32.632Z,101056.47
2019-06-20T11:35:05.364Z,101055.21
2019-06-20T11:37:38.044Z,101056.55
2019-06-20T11:40:11.013Z,101056.47
2019-06-20T11:42:44.607Z,101059.97
2019-06-20T11:45:18.362Z,101062.45
2019-06-20T11:47:50.995Z,101062.39
2019-06-20T11:50:23.849Z,101068.29
2019-06-20T11:52:56.132Z,101066.93
2019-06-20T11:55:28.773Z,101061.28
2019-06-20T11:58:01.426Z,101067.67
2019-06-20T12:00:33.804Z,101062.96
2019-06-20T12:03:08.202Z,101064.16
2019-06-20T12:05:41.864Z,101056.48
2019-06-20T12:08:17.719Z,101060.33
2019-06-20T12:10:52.677Z,101065.72
2019-06-20T12:13:26.044Z,101059.17
2019-06-20T12:15:59.336Z,101064.61
2019-06-20T12:18:32.036Z,101074.98
2019-06-20T12:21:04.736Z,101069.56
2019-06-20T12:23:38.101Z,101071.78
2019-06-20T12:26:12.207Z,101068.38
2019-06-20T12:28:44.781Z,101068.25
2019-06-20T12:31:19.860Z,101059.46
2019-06-20T12:33:52.002Z,101067.35
2019-06-20T12:36:24.904Z,101068.30
2019-06-20T12:38:57.497Z,101060.50
2019-06-20T12:41:29.837Z,101062.62
2019-06-20T12:44:02.470Z,101051.81
2019-06-20T12:46:35.142Z,101057.72
2019-06-20T12:49:07.547Z,101059.39
2019-06-20T12:51:40.476Z,101057.80
2019-06-20T12:54:13.236Z,101053.38
2019-06-20T12:56:46.303Z,101053.06
2019-06-20T12:59:24.973Z,101045.77
2019-06-20T13:01:57.632Z,101051.66
2019-06-20T13:04:31.069Z,101049.78
2019-06-20T13:07:03.777Z,101047.59
2019-06-20T13:09:36.136Z,101046.72
2019-06-20T13:12:08.551Z,101051.08
2019-06-20T13:14:40.978Z,101056.58
2019-06-20T13:17:15.022Z,101057.33
2019-06-20T13:19:48.540Z,101061.07
2019-06-20T13:22:21.008Z,101062.46
2019-06-20T13:24:54.064Z,101062.80
2019-06-20T13:27:26.678Z,101071.57
2019-06-20T13:29:59.432Z,101072.45
2019-06-20T13:32:31.794Z,101072.66
2019-06-20T13:35:04.141Z,101072.73
2019-06-20T13:37:36.464Z,101067.06
2019-06-20T13:40:10.257Z,101066.61
2019-06-20T13:42:44.248Z,101071.39
2019-06-20T13:45:24.027Z,101063.75
2019-06-20T13:47:56.983Z,101059.18
2019-06-20T13:50:29.620Z,101061.87
2019-06-20T13:53:02.131Z,101058.55
2019-06-20T13:55:35.148Z,101056.81
2019-06-20T13:58:07.512Z,101053.24
2019-06-20T14:00:43.111Z,101062.61
2019-06-20T14:03:15.751Z,101069.47
2019-06-20T14:05:51.563Z,101073.52
2019-06-20T14:08:25.281Z,101080.84
2019-06-20T14:10:57.961Z,101077.41
2019-06-20T14:13:31.471Z,101079.20
2019-06-20T14:16:04.592Z,101074.19
2019-06-20T14:18:38.568Z,101076.67
2019-06-20T14:21:10.846Z,101077.66
2019-06-20T14:23:44.718Z,101082.13
2019-06-20T14:26:17.241Z,101076.99
2019-06-20T14:28:51.045Z,101074.28
2019-06-20T14:31:24.301Z,101063.29
2019-06-20T14:33:56.587Z,101068.61
2019-06-20T14:36:28.934Z,101077.21
2019-06-20T14:39:06.777Z,101088.12
2019-06-20T14:41:39.107Z,101095.05
2019-06-20T14:44:11.710Z,101088.97
2019-06-20T14:46:44.115Z,101084.19
2019-06-20T14:49:16.455Z,101087.66
2019-06-20T14:51:50.070Z,101090.92
2019-06-20T14:54:22.552Z,101115.00
2019-06-20T14:56:58.087Z,101125.86
2019-06-20T14:59:29.241Z,101134.02
2019-06-20T15:02:02.222Z,101134.54
2019-06-20T15:04:34.573Z,101135.47
2019-06-20T15:07:06.926Z,101141.90
2019-06-20T15:09:39.251Z,101133.88
2019-06-20T15:12:11.554Z,101129.56
2019-06-20T15:14:46.214Z,101123.83
2019-06-20T15:17:19.535Z,101115.88
2019-06-20T15:19:52.291Z,101124.34
2019-06-20T15:22:24.780Z,101108.63
2019-06-20T15:24:57.222Z,101120.67
2019-06-20T15:27:30.257Z,101113.27
2019-06-20T15:30:02.928Z,101108.16
2019-06-20T15:32:35.653Z,101109.68
2019-06-20T15:35:08.389Z,101110.71
2019-06-20T15:37:41.018Z,101100.92
2019-06-20T15:40:14.104Z,101099.55
2019-06-20T15:42:47.480Z,101097.77
2019-06-20T15:45:21.757Z,101099.71
2019-06-20T15:47:55.547Z,101100.92
2019-06-20T15:50:28.160Z,101102.70
2019-06-20T15:53:00.774Z,101101.04
2019-06-20T15:55:33.055Z,101107.14
2019-06-20T15:58:05.713Z,101115.47
2019-06-20T16:00:38.508Z,101114.67
2019-06-20T16:03:14.369Z,101115.66
2019-06-20T16:05:44.920Z,101113.25
2019-06-20T16:08:17.631Z,101110.89
2019-06-20T16:10:50.227Z,101110.09
2019-06-20T16:13:22.657Z,101109.45
2019-06-20T16:15:56.417Z,101107.80
2019-06-20T16:18:29.113Z,101105.00
2019-06-20T16:21:02.122Z,101107.82
2019-06-20T16:23:34.752Z,101109.89
2019-06-20T16:26:07.510Z,101108.32
2019-06-20T16:28:39.984Z,101104.84
2019-06-20T16:31:25.900Z,101103.25
2019-06-20T16:33:46.812Z,101098.49
2019-06-20T16:36:20.115Z,101105.64
2019-06-20T16:38:52.384Z,101099.88
2019-06-20T16:41:24.744Z,101103.23
2019-06-20T16:43:57.076Z,101106.32
2019-06-20T16:46:29.468Z,101111.37
2019-06-20T16:49:02.541Z,101109.57
2019-06-20T16:51:34.871Z,101110.33
2019-06-20T16:54:07.187Z,101106.95
2019-06-20T16:56:39.489Z,101107.39
2019-06-20T16:59:14.280Z,101094.74
2019-06-20T17:01:46.564Z,101100.33
2019-06-20T17:04:19.200Z,101097.58
2019-06-20T17:06:51.477Z,101092.48
2019-06-20T17:09:28.790Z,101095.42
2019-06-20T17:12:02.233Z,101092.70
2019-06-20T17:14:34.965Z,101098.31
2019-06-20T17:17:07.245Z,101112.22
2019-06-20T17:19:42.244Z,101106.84
2019-06-20T17:22:14.728Z,101110.70
2019-06-20T17:24:47.096Z,101103.98
2019-06-20T17:27:19.430Z,101099.81
2019-06-20T17:29:52.053Z,101095.03
2019-06-20T17:32:24.786Z,101092.91
2019-06-20T17:34:57.242Z,101098.72
2019-06-20T17:37:29.511Z,101092.22
2019-06-20T17:40:02.470Z,101097.73
2019-06-20T17:42:36.609Z,101092.74
2019-06-20T17:45:10.332Z,101106.33
2019-06-20T17:47:45.137Z,101111.56
2019-06-20T17:50:18.500Z,101121.77
2019-06-20T17:52:51.330Z,101129.82
2019-06-20T17:55:24.093Z,101124.73
2019-06-20T17:57:56.747Z,101119.42
2019-06-20T18:00:29.484Z,101114.39
2019-06-20T18:03:02.941Z,101120.66
2019-06-20T18:05:35.316Z,101131.02
2019-06-20T18:08:15.259Z,101130.86
2019-06-20T18:10:42.064Z,101138.66
2019-06-20T18:13:14.927Z,101149.10
2019-06-20T18:15:48.161Z,101155.34
2019-06-20T18:18:20.819Z,101163.63
2019-06-20T18:20:53.268Z,101160.56
2019-06-20T18:23:25.903Z,101163.94
2019-06-20T18:25:58.750Z,101163.03
2019-06-20T18:28:31.075Z,101171.14
2019-06-20T18:31:03.440Z,101178.30
2019-06-20T18:33:36.305Z,101188.07
2019-06-20T18:36:08.997Z,101186.21
2019-06-20T18:38:41.949Z,101199.13
2019-06-20T18:41:15.328Z,101202.52
2019-06-20T18:43:48.609Z,101204.36
2019-06-20T18:46:21.291Z,101201.02
2019-06-20T18:48:54.020Z,101190.64
2019-06-20T18:51:26.334Z,101193.45
2019-06-20T18:53:59.302Z,101196.77
2019-06-20T18:56:32.837Z,101199.24
2019-06-20T18:59:05.257Z,101200.58
2019-06-20T19:01:37.992Z,101196.34
2019-06-20T19:04:10.347Z,101201.45
2019-06-20T19:06:43.375Z,101199.33
2019-06-20T19:09:15.774Z,101201.95
2019-06-20T19:11:48.042Z,101213.91
2019-06-20T19:14:22.557Z,101213.63
2019-06-20T19:16:54.859Z,101217.02
2019-06-20T19:19:27.284Z,101212.63
2019-06-20T19:21:59.599Z,101225.12
2019-06-20T19:24:33.385Z,101229.36
2019-06-20T19:27:06.460Z,101237.30
2019-06-20T19:29:38.824Z,101241.22
2019-06-20T19:32:13.343Z,101249.39
2019-06-20T19:35:00.895Z,101260.25
2019-06-20T19:37:20.977Z,101266.29
2019-06-20T19:39:53.672Z,101270.16
2019-06-20T19:42:26.990Z,101273.34
2019-06-20T19:44:59.726Z,101271.89
2019-06-20T19:47:32.915Z,101269.53
2019-06-20T19:50:06.932Z,101280.53
2019-06-20T19:52:39.768Z,101281.03
2019-06-20T19:55:13.458Z,101283.89
2019-06-20T19:57:46.130Z,101287.17
2019-06-20T20:00:18.552Z,101289.92
2019-06-20T20:02:51.673Z,101290.42
2019-06-20T20:05:24.073Z,101301.87
2019-06-20T20:07:56.536Z,101298.56
2019-06-20T20:10:48.083Z,101315.60
2019-06-20T20:13:20.890Z,101325.62
2019-06-20T20:15:53.196Z,101328.71
2019-06-20T20:18:26.223Z,101333.34
2019-06-20T20:20:59.327Z,101345.46
2019-06-20T20:23:33.614Z,101355.50
2019-06-20T20:26:08.695Z,101359.66
2019-06-20T20:28:41.854Z,101361.75
2019-06-20T20:31:14.632Z,101369.38
2019-06-20T20:33:47.380Z,101373.03
2019-06-20T20:36:24.887Z,101380.83
2019-06-20T20:38:55.313Z,101384.00
2019-06-20T20:41:27.829Z,101390.16
2019-06-20T20:44:03.173Z,101388.91
2019-06-20T20:46:36.113Z,101391.23
2019-06-20T20:49:09.928Z,101390.33
2019-06-20T20:51:42.641Z,101385.68
2019-06-20T20:54:16.531Z,101388.91
2019-06-20T20:56:49.491Z,101393.69
2019-06-20T20:59:22.182Z,101394.47
2019-06-20T21:01:54.998Z,101399.93
2019-06-20T21:04:27.928Z,101395.28
2019-06-20T21:07:01.521Z,101393.61
2019-06-20T21:09:35.376Z,101390.08
2019-06-20T21:12:08.032Z,101393.80
2019-06-20T21:14:41.032Z,101397.00
2019-06-20T21:17:13.975Z,101401.05
2019-06-20T21:19:46.650Z,101398.03
2019-06-20T21:22:19.414Z,101406.92
2019-06-20T21:24:53.542Z,101413.16
2019-06-20T21:27:26.711Z,101414.42
2019-06-20T21:29:59.851Z,101413.23
2019-06-20T21:32:33.849Z,101411.19
2019-06-20T21:35:07.323Z,101411.00
2019-06-20T21:37:40.052Z,101421.77
2019-06-20T21:40:13.474Z,101429.94
2019-06-20T21:42:46.244Z,101424.85
2019-06-20T21:45:20.039Z,101431.79
2019-06-20T21:47:52.822Z,101436.94
2019-06-20T21:50:25.086Z,101435.55
2019-06-20T21:52:57.808Z,101439.94
2019-06-20T21:55:30.453Z,101444.48
2019-06-20T21:58:02.947Z,101450.19
2019-06-20T22:00:40.737Z,101453.56
2019-06-20T22:03:14.907Z,101462.60
2019-06-20T22:05:47.225Z,101458.73
2019-06-20T22:08:19.554Z,101460.35
2019-06-20T22:10:53.170Z,101459.92
2019-06-20T22:13:25.578Z,101462.25
2019-06-20T22:15:57.846Z,101457.94
2019-06-20T22:18:30.458Z,101461.06
2019-06-20T22:21:02.949Z,101461.66
2019-06-20T22:23:35.306Z,101455.27
2019-06-20T22:26:07.649Z,101455.38
2019-06-20T22:28:40.097Z,101456.17
2019-06-20T22:31:12.392Z,101464.86
2019-06-20T22:33:44.789Z,101469.64
2019-06-20T22:36:17.084Z,101472.59
2019-06-20T22:38:49.473Z,101476.47
2019-06-20T22:41:21.729Z,101478.63
2019-06-20T22:43:54.217Z,101485.31
2019-06-20T22:46:26.497Z,101478.71
2019-06-20T22:48:58.900Z,101479.36
2019-06-20T22:51:31.233Z,101483.25
2019-06-20T22:54:03.691Z,101479.20
2019-06-20T22:56:36.019Z,101474.20
2019-06-20T22:59:11.744Z,101472.86
2019-06-20T23:01:45.169Z,101477.97
2019-06-20T23:04:17.498Z,101485.38
2019-06-20T23:06:56.245Z,101486.89
2019-06-20T23:09:27.149Z,101480.95
2019-06-20T23:11:58.557Z,101474.64
2019-06-20T23:14:31.289Z,101472.69
2019-06-20T23:17:03.569Z,101480.66
2019-06-20T23:19:35.912Z,101486.78
2019-06-20T23:22:08.226Z,101489.21
2019-06-20T23:24:40.579Z,101486.48
2019-06-20T23:27:14.207Z,101482.88
2019-06-20T23:29:47.122Z,101476.84
2019-06-20T23:32:19.411Z,101480.99
2019-06-20T23:34:52.104Z,101479.70
2019-06-20T23:37:24.344Z,101488.59
2019-06-20T23:39:56.690Z,101493.59
2019-06-20T23:42:28.960Z,101493.69
2019-06-20T23:45:01.690Z,101491.45
2019-06-20T23:47:33.980Z,101491.49
2019-06-20T23:50:07.331Z,101491.15
2019-06-20T23:52:41.583Z,101490.70
2019-06-20T23:55:14.032Z,101483.67
2019-06-20T23:57:46.647Z,101484.59
